sensor_id;sensor_type;location;lat;lon;timestamp;P1;durP1;ratioP1;P2;durP2;ratioP2
4547;SDS011;2286;51.570;7.090;2023-11-19T00:01:32;0.30;;;0.30;;
4547;SDS011;2286;51.570;7.090;2023-11-19T00:03:59;0.30;;;0.30;;
4547;SDS011;2286;51.570;7.090;2023-11-19T00:06:26;0.30;;;0.30;;
4547;SDS011;2286;51.570;7.090;2023-11-19T00:08:53;0.30;;;0.30;;
4547;SDS011;2286;51.570;7.090;2023-11-19T00:11:21;0.30;;;0.30;;
4547;SDS011;2286;51.570;7.090;2023-11-19T00:13:47;0.40;;;0.40;;
4547;SDS011;2286;51.570;7.090;2023-11-19T00:16:14;0.30;;;0.30;;
4547;SDS011;2286;51.570;7.090;2023-11-19T00:18:41;0.30;;;0.30;;
4547;SDS011;2286;51.570;7.090;2023-11-19T00:21:08;0.57;;;0.57;;
4547;SDS011;2286;51.570;7.090;2023-11-19T00:23:35;1.63;;;1.53;;
4547;SDS011;2286;51.570;7.090;2023-11-19T00:26:02;0.40;;;0.30;;
4547;SDS011;2286;51.570;7.090;2023-11-19T00:28:32;0.30;;;0.30;;
4547;SDS011;2286;51.570;7.090;2023-11-19T00:30:59;0.70;;;0.70;;
4547;SDS011;2286;51.570;7.090;2023-11-19T00:33:26;0.30;;;0.30;;
4547;SDS011;2286;51.570;7.090;2023-11-19T00:35:53;0.30;;;0.30;;
4547;SDS011;2286;51.570;7.090;2023-11-19T00:38:20;0.90;;;0.90;;
4547;SDS011;2286;51.570;7.090;2023-11-19T00:40:47;0.30;;;0.30;;
4547;SDS011;2286;51.570;7.090;2023-11-19T00:43:14;0.60;;;0.60;;
4547;SDS011;2286;51.570;7.090;2023-11-19T00:45:42;0.40;;;0.40;;
4547;SDS011;2286;51.570;7.090;2023-11-19T00:48:09;0.30;;;0.30;;
4547;SDS011;2286;51.570;7.090;2023-11-19T00:50:36;0.30;;;0.30;;
4547;SDS011;2286;51.570;7.090;2023-11-19T00:53:03;0.30;;;0.30;;
4547;SDS011;2286;51.570;7.090;2023-11-19T00:55:29;1.07;;;1.07;;
4547;SDS011;2286;51.570;7.090;2023-11-19T00:57:57;0.30;;;0.30;;
4547;SDS011;2286;51.570;7.090;2023-11-19T01:00:24;0.30;;;0.30;;
4547;SDS011;2286;51.570;7.090;2023-11-19T01:02:53;0.30;;;0.30;;
4547;SDS011;2286;51.570;7.090;2023-11-19T01:05:20;0.40;;;0.40;;
4547;SDS011;2286;51.570;7.090;2023-11-19T01:07:47;0.40;;;0.40;;
4547;SDS011;2286;51.570;7.090;2023-11-19T01:10:15;0.50;;;0.50;;
4547;SDS011;2286;51.570;7.090;2023-11-19T01:12:43;0.30;;;0.30;;
4547;SDS011;2286;51.570;7.090;2023-11-19T01:15:10;0.40;;;0.40;;
4547;SDS011;2286;51.570;7.090;2023-11-19T01:17:38;0.30;;;0.30;;
4547;SDS011;2286;51.570;7.090;2023-11-19T01:20:07;0.30;;;0.30;;
4547;SDS011;2286;51.570;7.090;2023-11-19T01:22:37;0.30;;;0.30;;
4547;SDS011;2286;51.570;7.090;2023-11-19T01:25:04;0.37;;;0.37;;
4547;SDS011;2286;51.570;7.090;2023-11-19T01:27:32;0.30;;;0.30;;
4547;SDS011;2286;51.570;7.090;2023-11-19T01:30:00;0.40;;;0.40;;
4547;SDS011;2286;51.570;7.090;2023-11-19T01:32:28;0.30;;;0.30;;
4547;SDS011;2286;51.570;7.090;2023-11-19T01:34:55;0.30;;;0.30;;
4547;SDS011;2286;51.570;7.090;2023-11-19T01:37:23;1.17;;;1.07;;
4547;SDS011;2286;51.570;7.090;2023-11-19T01:39:50;0.30;;;0.30;;
4547;SDS011;2286;51.570;7.090;2023-11-19T01:42:17;0.30;;;0.30;;
4547;SDS011;2286;51.570;7.090;2023-11-19T01:44:54;1.40;;;1.40;;
4547;SDS011;2286;51.570;7.090;2023-11-19T01:47:23;0.30;;;0.30;;
4547;SDS011;2286;51.570;7.090;2023-11-19T01:49:51;0.30;;;0.30;;
4547;SDS011;2286;51.570;7.090;2023-11-19T01:52:18;0.50;;;0.50;;
4547;SDS011;2286;51.570;7.090;2023-11-19T01:54:46;0.30;;;0.30;;
4547;SDS011;2286;51.570;7.090;2023-11-19T01:57:14;0.30;;;0.30;;
4547;SDS011;2286;51.570;7.090;2023-11-19T01:59:41;0.30;;;0.30;;
4547;SDS011;2286;51.570;7.090;2023-11-19T02:02:08;0.57;;;0.57;;
4547;SDS011;2286;51.570;7.090;2023-11-19T02:04:37;0.30;;;0.30;;
4547;SDS011;2286;51.570;7.090;2023-11-19T02:07:06;1.07;;;1.00;;
4547;SDS011;2286;51.570;7.090;2023-11-19T02:09:34;0.30;;;0.30;;
4547;SDS011;2286;51.570;7.090;2023-11-19T02:12:02;0.30;;;0.30;;
4547;SDS011;2286;51.570;7.090;2023-11-19T02:14:29;0.30;;;0.30;;
4547;SDS011;2286;51.570;7.090;2023-11-19T02:16:56;0.30;;;0.30;;
4547;SDS011;2286;51.570;7.090;2023-11-19T02:19:23;0.30;;;0.30;;
4547;SDS011;2286;51.570;7.090;2023-11-19T02:21:50;0.30;;;0.30;;
4547;SDS011;2286;51.570;7.090;2023-11-19T02:24:16;0.40;;;0.40;;
4547;SDS011;2286;51.570;7.090;2023-11-19T02:26:50;0.30;;;0.30;;
4547;SDS011;2286;51.570;7.090;2023-11-19T02:29:25;0.30;;;0.30;;
4547;SDS011;2286;51.570;7.090;2023-11-19T02:31:52;0.50;;;0.50;;
4547;SDS011;2286;51.570;7.090;2023-11-19T02:34:20;0.30;;;0.30;;
4547;SDS011;2286;51.570;7.090;2023-11-19T02:36:47;0.30;;;0.30;;
4547;SDS011;2286;51.570;7.090;2023-11-19T02:39:15;0.30;;;0.30;;
4547;SDS011;2286;51.570;7.090;2023-11-19T02:41:46;0.30;;;0.30;;
4547;SDS011;2286;51.570;7.090;2023-11-19T02:44:15;0.30;;;0.30;;
4547;SDS011;2286;51.570;7.090;2023-11-19T02:46:44;0.40;;;0.40;;
4547;SDS011;2286;51.570;7.090;2023-11-19T02:49:13;0.30;;;0.30;;
4547;SDS011;2286;51.570;7.090;2023-11-19T02:51:40;0.30;;;0.30;;
4547;SDS011;2286;51.570;7.090;2023-11-19T02:54:06;0.30;;;0.30;;
4547;SDS011;2286;51.570;7.090;2023-11-19T02:56:34;0.30;;;0.30;;
4547;SDS011;2286;51.570;7.090;2023-11-19T02:59:04;1.50;;;1.23;;
4547;SDS011;2286;51.570;7.090;2023-11-19T03:01:39;0.50;;;0.50;;
4547;SDS011;2286;51.570;7.090;2023-11-19T03:04:10;0.33;;;0.30;;
4547;SDS011;2286;51.570;7.090;2023-11-19T03:06:37;0.30;;;0.30;;
4547;SDS011;2286;51.570;7.090;2023-11-19T03:09:04;1.03;;;1.03;;
4547;SDS011;2286;51.570;7.090;2023-11-19T03:11:35;0.30;;;0.30;;
4547;SDS011;2286;51.570;7.090;2023-11-19T03:14:02;0.30;;;0.30;;
4547;SDS011;2286;51.570;7.090;2023-11-19T03:16:29;0.30;;;0.30;;
4547;SDS011;2286;51.570;7.090;2023-11-19T03:18:55;0.30;;;0.30;;
4547;SDS011;2286;51.570;7.090;2023-11-19T03:21:28;0.30;;;0.30;;
4547;SDS011;2286;51.570;7.090;2023-11-19T03:23:55;0.30;;;0.30;;
4547;SDS011;2286;51.570;7.090;2023-11-19T03:26:24;0.30;;;0.30;;
4547;SDS011;2286;51.570;7.090;2023-11-19T03:28:50;0.30;;;0.30;;
4547;SDS011;2286;51.570;7.090;2023-11-19T03:31:17;0.30;;;0.30;;
4547;SDS011;2286;51.570;7.090;2023-11-19T03:33:45;0.30;;;0.30;;
4547;SDS011;2286;51.570;7.090;2023-11-19T03:36:12;0.73;;;0.73;;
4547;SDS011;2286;51.570;7.090;2023-11-19T03:38:40;0.30;;;0.30;;
4547;SDS011;2286;51.570;7.090;2023-11-19T03:41:10;0.30;;;0.30;;
4547;SDS011;2286;51.570;7.090;2023-11-19T03:43:37;0.30;;;0.30;;
4547;SDS011;2286;51.570;7.090;2023-11-19T03:46:04;0.30;;;0.30;;
4547;SDS011;2286;51.570;7.090;2023-11-19T03:48:41;0.30;;;0.30;;
4547;SDS011;2286;51.570;7.090;2023-11-19T03:51:08;0.30;;;0.30;;
4547;SDS011;2286;51.570;7.090;2023-11-19T03:53:36;0.30;;;0.30;;
4547;SDS011;2286;51.570;7.090;2023-11-19T03:56:05;0.30;;;0.30;;
4547;SDS011;2286;51.570;7.090;2023-11-19T03:58:34;0.70;;;0.70;;
4547;SDS011;2286;51.570;7.090;2023-11-19T04:01:01;0.30;;;0.30;;
4547;SDS011;2286;51.570;7.090;2023-11-19T04:03:28;0.40;;;0.30;;
4547;SDS011;2286;51.570;7.090;2023-11-19T04:05:55;0.30;;;0.30;;
4547;SDS011;2286;51.570;7.090;2023-11-19T04:08:21;0.30;;;0.30;;
4547;SDS011;2286;51.570;7.090;2023-11-19T04:10:48;0.30;;;0.30;;
4547;SDS011;2286;51.570;7.090;2023-11-19T04:13:17;0.30;;;0.30;;
4547;SDS011;2286;51.570;7.090;2023-11-19T04:15:44;0.30;;;0.30;;
4547;SDS011;2286;51.570;7.090;2023-11-19T04:18:11;1.50;;;1.43;;
4547;SDS011;2286;51.570;7.090;2023-11-19T04:20:38;0.30;;;0.30;;
4547;SDS011;2286;51.570;7.090;2023-11-19T04:23:07;0.30;;;0.30;;
4547;SDS011;2286;51.570;7.090;2023-11-19T04:25:34;0.30;;;0.30;;
4547;SDS011;2286;51.570;7.090;2023-11-19T04:28:01;0.30;;;0.30;;
4547;SDS011;2286;51.570;7.090;2023-11-19T04:30:30;0.60;;;0.60;;
4547;SDS011;2286;51.570;7.090;2023-11-19T04:32:57;0.30;;;0.30;;
4547;SDS011;2286;51.570;7.090;2023-11-19T04:35:24;0.30;;;0.30;;
4547;SDS011;2286;51.570;7.090;2023-11-19T04:37:51;0.30;;;0.30;;
4547;SDS011;2286;51.570;7.090;2023-11-19T04:40:22;0.30;;;0.30;;
4547;SDS011;2286;51.570;7.090;2023-11-19T04:42:49;0.30;;;0.30;;
4547;SDS011;2286;51.570;7.090;2023-11-19T04:45:16;0.30;;;0.30;;
4547;SDS011;2286;51.570;7.090;2023-11-19T04:47:44;0.30;;;0.30;;
4547;SDS011;2286;51.570;7.090;2023-11-19T04:50:11;0.30;;;0.30;;
4547;SDS011;2286;51.570;7.090;2023-11-19T04:52:38;0.83;;;0.67;;
4547;SDS011;2286;51.570;7.090;2023-11-19T04:55:07;0.70;;;0.70;;
4547;SDS011;2286;51.570;7.090;2023-11-19T04:57:36;0.30;;;0.30;;
4547;SDS011;2286;51.570;7.090;2023-11-19T05:00:03;2.83;;;2.63;;
4547;SDS011;2286;51.570;7.090;2023-11-19T05:02:32;0.30;;;0.30;;
4547;SDS011;2286;51.570;7.090;2023-11-19T05:05:00;0.30;;;0.30;;
4547;SDS011;2286;51.570;7.090;2023-11-19T05:07:28;0.30;;;0.30;;
4547;SDS011;2286;51.570;7.090;2023-11-19T05:09:55;0.30;;;0.30;;
4547;SDS011;2286;51.570;7.090;2023-11-19T05:12:22;0.30;;;0.30;;
4547;SDS011;2286;51.570;7.090;2023-11-19T05:14:49;0.40;;;0.40;;
4547;SDS011;2286;51.570;7.090;2023-11-19T05:17:17;0.30;;;0.30;;
4547;SDS011;2286;51.570;7.090;2023-11-19T05:19:44;0.33;;;0.30;;
4547;SDS011;2286;51.570;7.090;2023-11-19T05:22:12;0.37;;;0.37;;
4547;SDS011;2286;51.570;7.090;2023-11-19T05:24:39;1.53;;;1.43;;
4547;SDS011;2286;51.570;7.090;2023-11-19T05:27:06;0.30;;;0.30;;
4547;SDS011;2286;51.570;7.090;2023-11-19T05:29:33;0.30;;;0.30;;
4547;SDS011;2286;51.570;7.090;2023-11-19T05:32:00;0.30;;;0.30;;
4547;SDS011;2286;51.570;7.090;2023-11-19T05:34:27;0.30;;;0.30;;
4547;SDS011;2286;51.570;7.090;2023-11-19T05:36:53;0.30;;;0.30;;
4547;SDS011;2286;51.570;7.090;2023-11-19T05:39:22;0.30;;;0.30;;
4547;SDS011;2286;51.570;7.090;2023-11-19T05:41:49;0.30;;;0.30;;
4547;SDS011;2286;51.570;7.090;2023-11-19T05:44:16;0.30;;;0.30;;
4547;SDS011;2286;51.570;7.090;2023-11-19T05:46:43;0.30;;;0.30;;
4547;SDS011;2286;51.570;7.090;2023-11-19T05:49:10;0.30;;;0.30;;
4547;SDS011;2286;51.570;7.090;2023-11-19T05:51:38;0.30;;;0.30;;
4547;SDS011;2286;51.570;7.090;2023-11-19T05:54:06;2.77;;;2.67;;
4547;SDS011;2286;51.570;7.090;2023-11-19T05:56:34;0.33;;;0.33;;
4547;SDS011;2286;51.570;7.090;2023-11-19T05:59:01;0.30;;;0.30;;
4547;SDS011;2286;51.570;7.090;2023-11-19T06:01:32;0.40;;;0.40;;
4547;SDS011;2286;51.570;7.090;2023-11-19T06:03:59;0.30;;;0.30;;
4547;SDS011;2286;51.570;7.090;2023-11-19T06:06:28;0.30;;;0.30;;
4547;SDS011;2286;51.570;7.090;2023-11-19T06:08:55;0.40;;;0.40;;
4547;SDS011;2286;51.570;7.090;2023-11-19T06:11:22;0.30;;;0.30;;
4547;SDS011;2286;51.570;7.090;2023-11-19T06:13:53;0.50;;;0.50;;
4547;SDS011;2286;51.570;7.090;2023-11-19T06:16:20;0.40;;;0.40;;
4547;SDS011;2286;51.570;7.090;2023-11-19T06:18:46;0.30;;;0.30;;
4547;SDS011;2286;51.570;7.090;2023-11-19T06:21:13;1.07;;;1.07;;
4547;SDS011;2286;51.570;7.090;2023-11-19T06:23:41;0.40;;;0.40;;
4547;SDS011;2286;51.570;7.090;2023-11-19T06:26:08;0.30;;;0.30;;
4547;SDS011;2286;51.570;7.090;2023-11-19T06:28:35;0.60;;;0.60;;
4547;SDS011;2286;51.570;7.090;2023-11-19T06:31:04;0.30;;;0.30;;
4547;SDS011;2286;51.570;7.090;2023-11-19T06:33:31;0.67;;;0.67;;
4547;SDS011;2286;51.570;7.090;2023-11-19T06:35:58;0.33;;;0.30;;
4547;SDS011;2286;51.570;7.090;2023-11-19T06:38:25;0.40;;;0.40;;
4547;SDS011;2286;51.570;7.090;2023-11-19T06:40:52;27.90;;;6.60;;
4547;SDS011;2286;51.570;7.090;2023-11-19T06:43:19;28.63;;;5.43;;
4547;SDS011;2286;51.570;7.090;2023-11-19T06:45:46;20.37;;;6.07;;
4547;SDS011;2286;51.570;7.090;2023-11-19T06:48:14;30.27;;;5.87;;
4547;SDS011;2286;51.570;7.090;2023-11-19T06:50:41;30.43;;;5.90;;
4547;SDS011;2286;51.570;7.090;2023-11-19T06:53:08;20.33;;;6.40;;
4547;SDS011;2286;51.570;7.090;2023-11-19T06:55:36;30.23;;;5.77;;
4547;SDS011;2286;51.570;7.090;2023-11-19T06:58:03;24.23;;;4.97;;
4547;SDS011;2286;51.570;7.090;2023-11-19T07:00:30;29.37;;;6.23;;
4547;SDS011;2286;51.570;7.090;2023-11-19T07:02:57;25.47;;;6.03;;
4547;SDS011;2286;51.570;7.090;2023-11-19T07:05:25;23.27;;;5.10;;
4547;SDS011;2286;51.570;7.090;2023-11-19T07:07:53;21.13;;;5.70;;
4547;SDS011;2286;51.570;7.090;2023-11-19T07:10:20;35.13;;;6.00;;
4547;SDS011;2286;51.570;7.090;2023-11-19T07:12:47;23.37;;;6.70;;
4547;SDS011;2286;51.570;7.090;2023-11-19T07:15:15;28.03;;;6.07;;
4547;SDS011;2286;51.570;7.090;2023-11-19T07:17:43;27.77;;;5.20;;
4547;SDS011;2286;51.570;7.090;2023-11-19T07:20:10;25.17;;;6.30;;
4547;SDS011;2286;51.570;7.090;2023-11-19T07:22:41;21.90;;;5.13;;
4547;SDS011;2286;51.570;7.090;2023-11-19T07:25:10;24.20;;;5.50;;
4547;SDS011;2286;51.570;7.090;2023-11-19T07:27:38;34.03;;;7.37;;
4547;SDS011;2286;51.570;7.090;2023-11-19T07:30:05;18.40;;;5.47;;
4547;SDS011;2286;51.570;7.090;2023-11-19T07:32:33;20.40;;;6.30;;
4547;SDS011;2286;51.570;7.090;2023-11-19T07:35:00;24.90;;;6.50;;
4547;SDS011;2286;51.570;7.090;2023-11-19T07:37:27;20.50;;;5.27;;
4547;SDS011;2286;51.570;7.090;2023-11-19T07:39:55;20.50;;;6.00;;
4547;SDS011;2286;51.570;7.090;2023-11-19T07:42:22;21.03;;;5.33;;
4547;SDS011;2286;51.570;7.090;2023-11-19T07:44:49;30.37;;;5.37;;
4547;SDS011;2286;51.570;7.090;2023-11-19T07:47:16;22.43;;;4.87;;
4547;SDS011;2286;51.570;7.090;2023-11-19T07:49:43;21.30;;;5.43;;
4547;SDS011;2286;51.570;7.090;2023-11-19T07:52:10;25.23;;;6.00;;
4547;SDS011;2286;51.570;7.090;2023-11-19T07:54:36;19.00;;;5.17;;
4547;SDS011;2286;51.570;7.090;2023-11-19T07:57:05;28.90;;;7.40;;
4547;SDS011;2286;51.570;7.090;2023-11-19T07:59:31;21.13;;;6.60;;
4547;SDS011;2286;51.570;7.090;2023-11-19T08:01:58;20.40;;;5.37;;
4547;SDS011;2286;51.570;7.090;2023-11-19T08:04:25;23.77;;;5.50;;
4547;SDS011;2286;51.570;7.090;2023-11-19T08:06:52;29.50;;;5.20;;
4547;SDS011;2286;51.570;7.090;2023-11-19T08:09:18;18.33;;;5.23;;
4547;SDS011;2286;51.570;7.090;2023-11-19T08:11:46;29.00;;;6.17;;
4547;SDS011;2286;51.570;7.090;2023-11-19T08:14:14;28.20;;;6.90;;
4547;SDS011;2286;51.570;7.090;2023-11-19T08:16:41;21.90;;;5.47;;
4547;SDS011;2286;51.570;7.090;2023-11-19T08:19:08;25.90;;;6.23;;
4547;SDS011;2286;51.570;7.090;2023-11-19T08:21:34;28.60;;;6.17;;
4547;SDS011;2286;51.570;7.090;2023-11-19T08:24:01;26.80;;;6.13;;
4547;SDS011;2286;51.570;7.090;2023-11-19T08:26:28;22.77;;;5.90;;
4547;SDS011;2286;51.570;7.090;2023-11-19T08:28:55;23.43;;;4.90;;
4547;SDS011;2286;51.570;7.090;2023-11-19T08:31:24;24.67;;;5.90;;
4547;SDS011;2286;51.570;7.090;2023-11-19T08:33:51;27.63;;;5.67;;
4547;SDS011;2286;51.570;7.090;2023-11-19T08:36:17;21.70;;;4.60;;
4547;SDS011;2286;51.570;7.090;2023-11-19T08:38:45;16.43;;;4.70;;
4547;SDS011;2286;51.570;7.090;2023-11-19T08:41:13;21.57;;;5.23;;
4547;SDS011;2286;51.570;7.090;2023-11-19T08:43:40;23.93;;;5.23;;
4547;SDS011;2286;51.570;7.090;2023-11-19T08:46:09;20.97;;;5.20;;
4547;SDS011;2286;51.570;7.090;2023-11-19T08:48:37;31.60;;;5.97;;
4547;SDS011;2286;51.570;7.090;2023-11-19T08:51:04;26.90;;;5.30;;
4547;SDS011;2286;51.570;7.090;2023-11-19T08:53:31;22.03;;;5.30;;
4547;SDS011;2286;51.570;7.090;2023-11-19T08:55:58;19.40;;;4.73;;
4547;SDS011;2286;51.570;7.090;2023-11-19T08:58:25;28.47;;;6.13;;
4547;SDS011;2286;51.570;7.090;2023-11-19T09:00:52;25.83;;;5.47;;
4547;SDS011;2286;51.570;7.090;2023-11-19T09:03:19;29.10;;;4.30;;
4547;SDS011;2286;51.570;7.090;2023-11-19T09:05:48;28.77;;;5.63;;
4547;SDS011;2286;51.570;7.090;2023-11-19T09:08:14;22.37;;;5.57;;
4547;SDS011;2286;51.570;7.090;2023-11-19T09:10:41;23.43;;;6.43;;
4547;SDS011;2286;51.570;7.090;2023-11-19T09:13:08;17.00;;;4.67;;
4547;SDS011;2286;51.570;7.090;2023-11-19T09:15:35;21.30;;;6.13;;
4547;SDS011;2286;51.570;7.090;2023-11-19T09:18:02;20.97;;;4.80;;
4547;SDS011;2286;51.570;7.090;2023-11-19T09:20:29;22.30;;;4.40;;
4547;SDS011;2286;51.570;7.090;2023-11-19T09:23:03;22.80;;;5.20;;
4547;SDS011;2286;51.570;7.090;2023-11-19T09:25:31;31.47;;;5.63;;
4547;SDS011;2286;51.570;7.090;2023-11-19T09:27:57;22.37;;;5.10;;
4547;SDS011;2286;51.570;7.090;2023-11-19T09:30:24;22.07;;;4.77;;
4547;SDS011;2286;51.570;7.090;2023-11-19T09:32:51;27.10;;;6.23;;
4547;SDS011;2286;51.570;7.090;2023-11-19T09:35:18;21.90;;;4.63;;
4547;SDS011;2286;51.570;7.090;2023-11-19T09:37:45;23.13;;;5.20;;
4547;SDS011;2286;51.570;7.090;2023-11-19T09:40:13;16.87;;;5.33;;
4547;SDS011;2286;51.570;7.090;2023-11-19T09:42:42;17.10;;;5.10;;
4547;SDS011;2286;51.570;7.090;2023-11-19T09:45:12;22.93;;;5.60;;
4547;SDS011;2286;51.570;7.090;2023-11-19T09:47:40;27.97;;;5.70;;
4547;SDS011;2286;51.570;7.090;2023-11-19T09:50:09;33.27;;;6.10;;
4547;SDS011;2286;51.570;7.090;2023-11-19T09:52:40;17.00;;;4.70;;
4547;SDS011;2286;51.570;7.090;2023-11-19T09:55:07;25.27;;;4.93;;
4547;SDS011;2286;51.570;7.090;2023-11-19T09:57:36;18.30;;;4.80;;
4547;SDS011;2286;51.570;7.090;2023-11-19T10:00:05;16.67;;;5.20;;
4547;SDS011;2286;51.570;7.090;2023-11-19T10:02:33;19.10;;;4.33;;
4547;SDS011;2286;51.570;7.090;2023-11-19T10:05:03;17.87;;;4.40;;
4547;SDS011;2286;51.570;7.090;2023-11-19T10:07:32;23.17;;;6.00;;
4547;SDS011;2286;51.570;7.090;2023-11-19T10:09:59;19.50;;;5.60;;
4547;SDS011;2286;51.570;7.090;2023-11-19T10:12:26;23.90;;;4.70;;
4547;SDS011;2286;51.570;7.090;2023-11-19T10:14:55;21.67;;;4.83;;
4547;SDS011;2286;51.570;7.090;2023-11-19T10:17:27;19.30;;;4.80;;
4547;SDS011;2286;51.570;7.090;2023-11-19T10:19:54;23.33;;;6.47;;
4547;SDS011;2286;51.570;7.090;2023-11-19T10:22:22;27.77;;;5.50;;
4547;SDS011;2286;51.570;7.090;2023-11-19T10:24:49;20.37;;;4.57;;
4547;SDS011;2286;51.570;7.090;2023-11-19T10:27:16;23.00;;;5.90;;
4547;SDS011;2286;51.570;7.090;2023-11-19T10:29:44;16.40;;;4.73;;
4547;SDS011;2286;51.570;7.090;2023-11-19T10:32:14;26.00;;;5.20;;
4547;SDS011;2286;51.570;7.090;2023-11-19T10:34:41;19.93;;;5.27;;
4547;SDS011;2286;51.570;7.090;2023-11-19T10:37:08;21.60;;;5.27;;
4547;SDS011;2286;51.570;7.090;2023-11-19T10:39:53;18.67;;;5.53;;
4547;SDS011;2286;51.570;7.090;2023-11-19T10:42:20;21.47;;;4.70;;
4547;SDS011;2286;51.570;7.090;2023-11-19T10:44:47;21.27;;;5.50;;
4547;SDS011;2286;51.570;7.090;2023-11-19T10:47:16;22.03;;;6.33;;
4547;SDS011;2286;51.570;7.090;2023-11-19T10:49:46;27.87;;;5.57;;
4547;SDS011;2286;51.570;7.090;2023-11-19T10:52:13;23.80;;;5.80;;
4547;SDS011;2286;51.570;7.090;2023-11-19T10:54:44;19.67;;;4.70;;
4547;SDS011;2286;51.570;7.090;2023-11-19T10:57:13;16.00;;;4.60;;
4547;SDS011;2286;51.570;7.090;2023-11-19T10:59:46;20.83;;;4.40;;
4547;SDS011;2286;51.570;7.090;2023-11-19T11:02:17;25.27;;;6.00;;
4547;SDS011;2286;51.570;7.090;2023-11-19T11:04:47;20.20;;;4.33;;
4547;SDS011;2286;51.570;7.090;2023-11-19T11:07:17;21.43;;;7.30;;
4547;SDS011;2286;51.570;7.090;2023-11-19T11:09:51;23.63;;;6.90;;
4547;SDS011;2286;51.570;7.090;2023-11-19T11:12:18;17.93;;;4.70;;
4547;SDS011;2286;51.570;7.090;2023-11-19T11:14:49;20.00;;;4.40;;
4547;SDS011;2286;51.570;7.090;2023-11-19T11:17:17;26.97;;;5.70;;
4547;SDS011;2286;51.570;7.090;2023-11-19T11:19:46;19.70;;;4.57;;
4547;SDS011;2286;51.570;7.090;2023-11-19T11:22:13;22.43;;;4.93;;
4547;SDS011;2286;51.570;7.090;2023-11-19T11:30:45;16.40;;;4.40;;
4547;SDS011;2286;51.570;7.090;2023-11-19T11:33:29;19.57;;;4.40;;
4547;SDS011;2286;51.570;7.090;2023-11-19T11:36:04;27.80;;;5.33;;
4547;SDS011;2286;51.570;7.090;2023-11-19T11:38:39;31.33;;;5.37;;
4547;SDS011;2286;51.570;7.090;2023-11-19T11:41:17;15.13;;;3.80;;
4547;SDS011;2286;51.570;7.090;2023-11-19T11:43:46;15.40;;;3.77;;
4547;SDS011;2286;51.570;7.090;2023-11-19T11:49:26;15.33;;;3.80;;
4547;SDS011;2286;51.570;7.090;2023-11-19T11:51:58;14.60;;;3.60;;
4547;SDS011;2286;51.570;7.090;2023-11-19T11:54:31;18.73;;;5.67;;
4547;SDS011;2286;51.570;7.090;2023-11-19T11:57:09;14.80;;;4.63;;
4547;SDS011;2286;51.570;7.090;2023-11-19T11:59:46;20.47;;;4.87;;
4547;SDS011;2286;51.570;7.090;2023-11-19T12:02:14;23.70;;;4.13;;
4547;SDS011;2286;51.570;7.090;2023-11-19T12:04:45;17.47;;;4.20;;
4547;SDS011;2286;51.570;7.090;2023-11-19T12:07:16;14.10;;;3.77;;
4547;SDS011;2286;51.570;7.090;2023-11-19T12:09:47;21.87;;;4.77;;
4547;SDS011;2286;51.570;7.090;2023-11-19T12:12:21;18.37;;;4.50;;
4547;SDS011;2286;51.570;7.090;2023-11-19T12:15:05;17.17;;;4.10;;
4547;SDS011;2286;51.570;7.090;2023-11-19T12:17:46;15.60;;;4.20;;
4547;SDS011;2286;51.570;7.090;2023-11-19T12:20:19;15.33;;;4.13;;
4547;SDS011;2286;51.570;7.090;2023-11-19T12:22:47;15.63;;;3.70;;
4547;SDS011;2286;51.570;7.090;2023-11-19T12:25:15;14.83;;;3.80;;
4547;SDS011;2286;51.570;7.090;2023-11-19T12:27:44;22.13;;;5.47;;
4547;SDS011;2286;51.570;7.090;2023-11-19T12:30:16;11.20;;;3.50;;
4547;SDS011;2286;51.570;7.090;2023-11-19T12:32:44;17.90;;;5.10;;
4547;SDS011;2286;51.570;7.090;2023-11-19T12:35:12;22.13;;;3.90;;
4547;SDS011;2286;51.570;7.090;2023-11-19T12:37:44;20.60;;;4.70;;
4547;SDS011;2286;51.570;7.090;2023-11-19T12:40:12;9.57;;;3.40;;
4547;SDS011;2286;51.570;7.090;2023-11-19T12:42:43;17.90;;;4.13;;
4547;SDS011;2286;51.570;7.090;2023-11-19T12:45:10;19.70;;;4.00;;
4547;SDS011;2286;51.570;7.090;2023-11-19T12:47:37;16.93;;;3.93;;
4547;SDS011;2286;51.570;7.090;2023-11-19T12:50:05;26.63;;;3.90;;
4547;SDS011;2286;51.570;7.090;2023-11-19T12:52:33;15.20;;;4.53;;
4547;SDS011;2286;51.570;7.090;2023-11-19T12:55:01;19.90;;;4.27;;
4547;SDS011;2286;51.570;7.090;2023-11-19T12:57:38;32.10;;;5.00;;
4547;SDS011;2286;51.570;7.090;2023-11-19T13:00:06;16.60;;;5.13;;
4547;SDS011;2286;51.570;7.090;2023-11-19T13:02:45;0.57;;;0.57;;
4547;SDS011;2286;51.570;7.090;2023-11-19T13:05:20;0.40;;;0.30;;
4547;SDS011;2286;51.570;7.090;2023-11-19T13:07:48;0.40;;;0.30;;
4547;SDS011;2286;51.570;7.090;2023-11-19T13:10:17;0.40;;;0.30;;
4547;SDS011;2286;51.570;7.090;2023-11-19T13:12:59;0.40;;;0.30;;
4547;SDS011;2286;51.570;7.090;2023-11-19T13:15:29;0.40;;;0.30;;
4547;SDS011;2286;51.570;7.090;2023-11-19T13:17:55;0.40;;;0.30;;
4547;SDS011;2286;51.570;7.090;2023-11-19T13:20:22;0.40;;;0.30;;
4547;SDS011;2286;51.570;7.090;2023-11-19T13:22:56;0.40;;;0.30;;
4547;SDS011;2286;51.570;7.090;2023-11-19T13:25:24;0.40;;;0.40;;
4547;SDS011;2286;51.570;7.090;2023-11-19T13:27:52;0.40;;;0.30;;
4547;SDS011;2286;51.570;7.090;2023-11-19T13:30:19;0.40;;;0.30;;
4547;SDS011;2286;51.570;7.090;2023-11-19T13:32:47;1.13;;;1.13;;
4547;SDS011;2286;51.570;7.090;2023-11-19T13:35:14;0.40;;;0.30;;
4547;SDS011;2286;51.570;7.090;2023-11-19T13:37:42;0.40;;;0.30;;
4547;SDS011;2286;51.570;7.090;2023-11-19T13:40:09;0.40;;;0.30;;
4547;SDS011;2286;51.570;7.090;2023-11-19T13:42:40;0.40;;;0.30;;
4547;SDS011;2286;51.570;7.090;2023-11-19T13:45:08;0.40;;;0.37;;
4547;SDS011;2286;51.570;7.090;2023-11-19T13:47:37;0.40;;;0.40;;
4547;SDS011;2286;51.570;7.090;2023-11-19T13:50:06;0.40;;;0.30;;
4547;SDS011;2286;51.570;7.090;2023-11-19T13:52:34;0.40;;;0.30;;
4547;SDS011;2286;51.570;7.090;2023-11-19T13:55:03;0.40;;;0.30;;
4547;SDS011;2286;51.570;7.090;2023-11-19T13:57:31;0.40;;;0.30;;
4547;SDS011;2286;51.570;7.090;2023-11-19T14:00:00;0.90;;;0.90;;
4547;SDS011;2286;51.570;7.090;2023-11-19T14:02:30;0.40;;;0.40;;
4547;SDS011;2286;51.570;7.090;2023-11-19T14:04:58;0.40;;;0.30;;
4547;SDS011;2286;51.570;7.090;2023-11-19T14:07:25;0.40;;;0.40;;
4547;SDS011;2286;51.570;7.090;2023-11-19T14:09:51;0.40;;;0.40;;
4547;SDS011;2286;51.570;7.090;2023-11-19T14:12:19;17.97;;;4.83;;
4547;SDS011;2286;51.570;7.090;2023-11-19T14:14:46;18.10;;;4.50;;
4547;SDS011;2286;51.570;7.090;2023-11-19T14:17:14;17.30;;;5.83;;
4547;SDS011;2286;51.570;7.090;2023-11-19T14:19:41;17.33;;;4.23;;
4547;SDS011;2286;51.570;7.090;2023-11-19T14:22:09;14.40;;;4.37;;
4547;SDS011;2286;51.570;7.090;2023-11-19T14:24:36;20.27;;;6.03;;
4547;SDS011;2286;51.570;7.090;2023-11-19T14:27:02;15.00;;;5.23;;
4547;SDS011;2286;51.570;7.090;2023-11-19T14:29:30;17.80;;;5.87;;
4547;SDS011;2286;51.570;7.090;2023-11-19T14:31:56;15.53;;;4.30;;
4547;SDS011;2286;51.570;7.090;2023-11-19T14:34:26;16.30;;;4.07;;
4547;SDS011;2286;51.570;7.090;2023-11-19T14:36:53;0.40;;;0.30;;
4547;SDS011;2286;51.570;7.090;2023-11-19T14:39:19;0.40;;;0.30;;
4547;SDS011;2286;51.570;7.090;2023-11-19T14:41:46;0.40;;;0.30;;
4547;SDS011;2286;51.570;7.090;2023-11-19T14:44:14;0.40;;;0.30;;
4547;SDS011;2286;51.570;7.090;2023-11-19T14:46:41;0.40;;;0.30;;
4547;SDS011;2286;51.570;7.090;2023-11-19T14:49:08;0.77;;;0.73;;
4547;SDS011;2286;51.570;7.090;2023-11-19T14:51:36;0.40;;;0.30;;
4547;SDS011;2286;51.570;7.090;2023-11-19T14:54:03;0.40;;;0.30;;
4547;SDS011;2286;51.570;7.090;2023-11-19T14:56:30;0.40;;;0.30;;
4547;SDS011;2286;51.570;7.090;2023-11-19T14:58:57;0.40;;;0.30;;
4547;SDS011;2286;51.570;7.090;2023-11-19T15:01:24;0.50;;;0.50;;
4547;SDS011;2286;51.570;7.090;2023-11-19T15:03:53;0.40;;;0.30;;
4547;SDS011;2286;51.570;7.090;2023-11-19T15:06:22;0.40;;;0.30;;
4547;SDS011;2286;51.570;7.090;2023-11-19T15:08:52;0.53;;;0.50;;
4547;SDS011;2286;51.570;7.090;2023-11-19T15:11:19;0.40;;;0.30;;
4547;SDS011;2286;51.570;7.090;2023-11-19T15:13:46;0.40;;;0.30;;
4547;SDS011;2286;51.570;7.090;2023-11-19T15:16:14;0.40;;;0.30;;
4547;SDS011;2286;51.570;7.090;2023-11-19T15:18:47;0.40;;;0.30;;
4547;SDS011;2286;51.570;7.090;2023-11-19T15:21:13;0.40;;;0.30;;
4547;SDS011;2286;51.570;7.090;2023-11-19T15:23:40;0.40;;;0.40;;
4547;SDS011;2286;51.570;7.090;2023-11-19T15:26:08;0.60;;;0.60;;